Map

Track Data

SID SEASON NUMBER BASIN SUBBASIN NAME ISO_TIME NATURE LAT LON WMO_WIND WMO_PRES WMO_AGENCY TRACK_TYPE DIST2LAND LANDFALL IFLAG USA_AGENCY USA_ATCF_ID USA_LAT USA_LON USA_RECORD USA_STATUS USA_WIND USA_PRES USA_SSHS USA_R34_NE USA_R34_SE USA_R34_SW USA_R34_NW USA_R50_NE USA_R50_SE USA_R50_SW USA_R50_NW USA_R64_NE USA_R64_SE USA_R64_SW USA_R64_NW USA_POCI USA_ROCI USA_RMW USA_EYE TOKYO_LAT TOKYO_LON TOKYO_GRADE TOKYO_WIND TOKYO_PRES TOKYO_R50_DIR TOKYO_R50_LONG TOKYO_R50_SHORT TOKYO_R30_DIR TOKYO_R30_LONG TOKYO_R30_SHORT TOKYO_LAND CMA_LAT CMA_LON CMA_CAT CMA_WIND CMA_PRES HKO_LAT HKO_LON HKO_CAT HKO_WIND HKO_PRES NEWDELHI_LAT NEWDELHI_LON NEWDELHI_GRADE NEWDELHI_WIND NEWDELHI_PRES NEWDELHI_CI NEWDELHI_DP NEWDELHI_POCI REUNION_LAT REUNION_LON REUNION_TYPE REUNION_WIND REUNION_PRES REUNION_TNUM REUNION_CI REUNION_RMW REUNION_R34_NE REUNION_R34_SE REUNION_R34_SW REUNION_R34_NW REUNION_R50_NE REUNION_R50_SE REUNION_R50_SW REUNION_R50_NW REUNION_R64_NE REUNION_R64_SE REUNION_R64_SW REUNION_R64_NW BOM_LAT BOM_LON BOM_TYPE BOM_WIND BOM_PRES BOM_TNUM BOM_CI BOM_RMW BOM_R34_NE BOM_R34_SE BOM_R34_SW BOM_R34_NW BOM_R50_NE BOM_R50_SE BOM_R50_SW BOM_R50_NW BOM_R64_NE BOM_R64_SE BOM_R64_SW BOM_R64_NW BOM_ROCI BOM_POCI BOM_EYE BOM_POS_METHOD BOM_PRES_METHOD NADI_LAT NADI_LON NADI_CAT NADI_WIND NADI_PRES WELLINGTON_LAT WELLINGTON_LON WELLINGTON_WIND WELLINGTON_PRES DS824_LAT DS824_LON DS824_STAGE DS824_WIND DS824_PRES TD9636_LAT TD9636_LON TD9636_STAGE TD9636_WIND TD9636_PRES TD9635_LAT TD9635_LON TD9635_WIND TD9635_PRES TD9635_ROCI NEUMANN_LAT NEUMANN_LON NEUMANN_CLASS NEUMANN_WIND NEUMANN_PRES MLC_LAT MLC_LON MLC_CLASS MLC_WIND MLC_PRES USA_GUST BOM_GUST BOM_GUST_PER REUNION_GUST REUNION_GUST_PER USA_SEAHGT USA_SEARAD_NE USA_SEARAD_SE USA_SEARAD_SW USA_SEARAD_NW STORM_SPEED STORM_DIR
1968216N22090 1968 55 NI BB NOT_NAMED 1968-08-02 18:00:00 TS 21.7000 90.0000 main 15 10 O________O____ jtwc_io IO051968 21.7000 90.0000 -1 21.7000 90.0000 TC 2 21
1968216N22090 1968 55 NI BB NOT_NAMED 1968-08-02 21:00:00 TS 21.7824 90.0324 main 10 0 P________P____ IO051968 21.7824 90.0324 -1 21.7824 90.0324 TC 2 333
1968216N22090 1968 55 NI BB NOT_NAMED 1968-08-03 00:00:00 TS 21.9000 89.9000 main 0 0 O________O____ jtwc_io IO051968 21.9000 89.9000 -1 21.9000 89.9000 TC 35 6 301
1968216N22090 1968 55 NI BB NOT_NAMED 1968-08-03 03:00:00 TS 22.0800 89.4911 main 0 0 P________PO___ IO051968 22.0775 89.4900 -1 22.0775 89.4900 TC 35 22.1000 89.5000 3 10 294
1968216N22090 1968 55 NI BB NOT_NAMED 1968-08-03 06:00:00 TS 22.3145 88.8946 main 0 0 O________OP___ jtwc_io IO051968 22.3000 88.9000 -1 22.3000 88.9000 TC 35 22.3723 88.8727 3 12 294
1968216N22090 1968 55 NI BB NOT_NAMED 1968-08-03 09:00:00 TS 22.5759 88.2598 main 0 0 P________PP___ IO051968 22.5576 88.2652 -1 22.5576 88.2652 TC 30 22.6248 88.2452 3 13 293
1968216N22090 1968 55 NI BB NOT_NAMED 1968-08-03 12:00:00 TS 22.8133 87.6067 main 0 0 O________OP___ jtwc_io IO051968 22.8000 87.6000 -1 22.8000 87.6000 TC 25 22.8398 87.6200 3 12 290
1968216N22090 1968 55 NI BB NOT_NAMED 1968-08-03 15:00:00 TS 22.9914 87.0000 main 0 0 P________PO___ IO051968 22.9871 86.9999 -1 22.9871 86.9999 TC 25 23.0000 87.0000 1 12 284
1968216N22090 1968 55 NI BB NOT_NAMED 1968-08-03 18:00:00 TS 23.0979 86.3954 main 0 0 O________OP___ jtwc_io IO051968 23.1000 86.4000 -1 23.1000 86.4000 TC 25 23.0936 86.3862 1 11 277
1968216N22090 1968 55 NI BB NOT_NAMED 1968-08-03 21:00:00 TS 23.1252 85.7619 main 0 0 P________PP___ IO051968 23.1223 85.7572 -1 23.1223 85.7572 TC 25 23.1309 85.7714 1 12 271
1968216N22090 1968 55 NI BB NOT_NAMED 1968-08-04 00:00:00 TS 23.1093 85.1153 main 0 0 O________OP___ jtwc_io IO051968 23.1000 85.1000 -1 23.1000 85.1000 TC 25 23.1279 85.1460 1 12 269
1968216N22090 1968 55 NI BB NOT_NAMED 1968-08-04 03:00:00 TS 23.1048 84.4717 main 0 0 P________PO___ IO051968 23.1071 84.4576 -1 23.1071 84.4576 TC 25 23.1000 84.5000 1 12 269
1968216N22090 1968 55 NI BB NOT_NAMED 1968-08-04 06:00:00 TS 23.0918 83.8044 main 0 0 O________OP___ jtwc_io IO051968 23.1000 83.8000 -1 23.1000 83.8000 TC 25 23.0754 83.8132 1 13 268
1968216N22090 1968 55 NI BB NOT_NAMED 1968-08-04 09:00:00 TS 23.0531 83.1074 main 0 0 P________PP___ IO051968 23.0648 83.1075 -1 23.0648 83.1075 TC 25 23.0297 83.1072 1 13 265
1968216N22090 1968 55 NI BB NOT_NAMED 1968-08-04 12:00:00 TS 22.9897 82.3992 main 0 0 O________OP___ jtwc_io IO051968 23.0000 82.4000 -1 23.0000 82.4000 TC 25 22.9691 82.3976 1 13 263
1968216N22090 1968 55 NI BB NOT_NAMED 1968-08-04 15:00:00 TS 22.8999 81.6899 main 0 0 P________PO___ IO051968 22.8999 81.6849 -1 22.8999 81.6849 TC 25 22.9000 81.7000 1 13 262
1968216N22090 1968 55 NI BB NOT_NAMED 1968-08-04 18:00:00 TS 22.8088 81.0186 main 0 0 O________OP___ jtwc_io IO051968 22.8000 81.0000 -1 22.8000 81.0000 TC 25 22.8264 81.0559 1 12 263
1968216N22090 1968 55 NI BB NOT_NAMED 1968-08-04 21:00:00 TS 22.7488 80.4077 main 0 0 P________PP___ IO051968 22.7494 80.4003 -1 22.7494 80.4003 TC 25 22.7476 80.4224 1 11 264
1968216N22090 1968 55 NI BB NOT_NAMED 1968-08-05 00:00:00 TS 22.6900 79.7926 main 0 0 O________OP___ jtwc_io IO051968 22.7000 79.8000 -1 22.7000 79.8000 TC 25 22.6701 79.7778 1 12 263
1968216N22090 1968 55 NI BB NOT_NAMED 1968-08-05 03:00:00 TS 22.5997 79.1249 main 0 0 P________PO___ IO051968 22.5996 79.1374 -1 22.5996 79.1374 TC 25 22.6000 79.1000 1 13 262
1968216N22090 1968 55 NI BB NOT_NAMED 1968-08-05 06:00:00 TS 22.5108 78.3639 main 0 0 O________OP___ jtwc_io IO051968 22.5000 78.4000 -1 22.5000 78.4000 TC 25 22.5323 78.2918 1 15 264
1968216N22090 1968 55 NI AS NOT_NAMED 1968-08-05 09:00:00 TS 22.4478 77.5099 main 0 0 P________PP___ IO051968 22.4354 77.5350 -1 22.4354 77.5350 TC 25 22.4725 77.4598 1 16 266
1968216N22090 1968 55 NI AS NOT_NAMED 1968-08-05 12:00:00 TS 22.4087 76.6910 main 0 0 O________OP___ jtwc_io IO051968 22.4000 76.7000 -1 22.4000 76.7000 TC 25 22.4262 76.6729 1 14 268
1968216N22090 1968 55 NI AS NOT_NAMED 1968-08-05 15:00:00 TS 22.3898 76.0067 main 0 0 P________PO___ IO051968 22.3848 76.0101 -1 22.3848 76.0101 TC 25 22.4000 76.0000 1 11 270
1968216N22090 1968 55 NI AS NOT_NAMED 1968-08-05 18:00:00 TS 22.4016 75.5216 main 0 0 O________OP___ jtwc_io IO051968 22.4000 75.5000 -1 22.4000 75.5000 TC 25 22.4047 75.5649 1 7 274
1968216N22090 1968 55 NI AS NOT_NAMED 1968-08-05 21:00:00 TS 22.4434 75.2319 main 0 0 P________PP___ IO051968 22.4494 75.2275 -1 22.4494 75.2275 TC 25 22.4313 75.2406 1 5 280
1968216N22090 1968 55 NI AS NOT_NAMED 1968-08-06 00:00:00 TS 22.4892 74.9820 main 0 0 O________OP___ jtwc_io IO051968 22.5000 75.0000 -1 22.5000 75.0000 TC 25 22.4675 74.9460 1 6 276
1968216N22090 1968 55 NI AS NOT_NAMED 1968-08-06 03:00:00 TS 22.5049 74.6066 main 0 0 P________PO___ IO051968 22.5073 74.6099 -1 22.5073 74.6099 TC 25 22.5000 74.6000 1 8 271
1968216N22090 1968 55 NI AS NOT_NAMED 1968-08-06 06:00:00 TS 22.5016 74.0762 main 0 0 O________OP___ jtwc_io IO051968 22.5000 74.1000 -1 22.5000 74.1000 TC 25 22.5047 74.0286 1 11 270
1968216N22090 1968 55 NI AS NOT_NAMED 1968-08-06 09:00:00 TS 22.5011 73.4299 main 0 0 P________PP___ IO051968 22.5005 73.4425 -1 22.5005 73.4425 TC 25 22.5023 73.4048 1 12 270
1968216N22090 1968 55 NI AS NOT_NAMED 1968-08-06 12:00:00 TS 22.4995 72.8012 main 0 0 O________OP___ jtwc_io IO051968 22.5000 72.8000 -1 22.5000 72.8000 TC 25 22.4985 72.8036 1 10 270
1968216N22090 1968 55 NI AS NOT_NAMED 1968-08-06 15:00:00 TS 22.4948 72.3167 main 0 0 P________PO___ IO051968 22.4923 72.3250 -1 22.4923 72.3250 TC 25 22.5000 72.3000 1 7 270
1968216N22090 1968 55 NI AS NOT_NAMED 1968-08-06 18:00:00 TS 22.5026 72.0136 main 0 0 O________OP___ jtwc_io IO051968 22.5000 72.0000 -1 22.5000 72.0000 TC 25 22.5078 72.0408 1 4 276
1968216N22090 1968 55 NI AS NOT_NAMED 1968-08-06 21:00:00 TS 22.5365 71.8540 main 0 0 P________PP___ IO051968 22.5422 71.8425 -1 22.5422 71.8425 TC 25 22.5250 71.8772 1 3 286
1968216N22090 1968 55 NI AS NOT_NAMED 1968-08-07 00:00:00 TS 22.5849 71.7083 main 0 0 O________OP___ jtwc_io IO051968 22.6000 71.7000 -1 22.6000 71.7000 TC 25 22.5548 71.7250 1 4 284
1968216N22090 1968 55 NI AS NOT_NAMED 1968-08-07 03:00:00 TS 22.6332 71.4450 main 0 0 P________PO___ IO051968 22.6498 71.4174 -1 22.6498 71.4174 TC 25 22.6000 71.5000 1 7 279
1968216N22090 1968 55 NI AS NOT_NAMED 1968-08-07 06:00:00 TS 22.6847 71.0086 main 0 0 O________OP___ jtwc_io IO051968 22.7000 71.0000 -1 22.7000 71.0000 TC 25 22.6541 71.0257 1 10 276
1968216N22090 1968 55 NI AS NOT_NAMED 1968-08-07 09:00:00 TS 22.7362 70.4110 main 0 0 P________PP___ IO051968 22.7432 70.3775 -1 22.7432 70.3775 TC 25 22.7223 70.4780 1 11 276
1968216N22090 1968 55 NI AS NOT_NAMED 1968-08-07 12:00:00 TS 22.8014 69.8471 main 0 0 O________OP___ jtwc_io IO051968 22.8000 69.8000 -1 22.8000 69.8000 TC 25 22.8041 69.9413 1 8 281
1968216N22090 1968 55 NI AS NOT_NAMED 1968-08-07 15:00:00 TS 22.8947 69.5216 main 0 0 P________PO___ IO051968 22.8921 69.5324 -1 22.8921 69.5324 TC 25 22.9000 69.5000 1 5 292
1968216N22090 1968 55 NI AS NOT_NAMED 1968-08-07 18:00:00 TS 22.9856 69.3568 main 0 0 O________OP___ jtwc_io IO051968 23.0000 69.4000 -1 23.0000 69.4000 TC 25 22.9568 69.2706 1 3 300
1968216N22090 1968 55 NI AS NOT_NAMED 1968-08-07 21:00:00 TS 23.0638 69.2046 main 0 0 P________PP___ IO051968 23.0775 69.2349 -1 23.0775 69.2349 TC 25 23.0364 69.1440 1 3 310
1968216N22090 1968 55 NI AS NOT_NAMED 1968-08-08 00:00:00 TS 23.1909 69.0901 main 0 0 O________OP___ jtwc_io IO051968 23.2000 69.1000 -1 23.2000 69.1000 TC 25 23.1728 69.0704 1 4 331
1968216N22090 1968 55 NI AS NOT_NAMED 1968-08-08 03:00:00 TS 23.3983 68.9999 main 0 0 P________PO___ IO051968 23.3975 68.9998 -1 23.3975 68.9998 TC 25 23.4000 69.0000 1 6 342
1968216N22090 1968 55 NI AS NOT_NAMED 1968-08-08 06:00:00 TS 23.7164 68.8971 main 0 0 O________OP___ jtwc_io IO051968 23.7000 68.9000 -1 23.7000 68.9000 TC 25 23.7411 68.8927 1 8 343
1968216N22090 1968 55 NI AS NOT_NAMED 1968-08-08 09:00:00 TS 24.1425 68.7571 main 0 0 P________PP___ IO051968 24.1176 68.7628 -1 24.1176 68.7628 TC 25 24.1757 68.7494 1 10 343
1968216N22090 1968 55 NI AS NOT_NAMED 1968-08-08 12:00:00 TS 24.6362 68.5907 main 0 0 O________OP___ jtwc_io IO051968 24.6000 68.6000 -1 24.6000 68.6000 TC 25 24.6724 68.5814 1 11 343
1968216N22090 1968 55 NI AS NOT_NAMED 1968-08-08 15:00:00 NR 25.2000 68.4000 main 0 __________O___ IO051968 -1 TC 25.2000 68.4000 1 12 343

About IBTrACS Database

This database is a web-friendly format of International Best Track Archive for Climate Stewardship (IBTrACS), a global best track data archive curated by NOAA dating back to 1842.

Updated: 2021-10-21